createdAt,value
2019-01-24T00:01:25.755Z,97770.70
2019-01-24T00:03:55.245Z,97753.33
2019-01-24T00:06:24.760Z,97753.52
2019-01-24T00:08:54.232Z,97743.71
2019-01-24T00:11:23.663Z,97754.45
2019-01-24T00:13:53.184Z,97751.46
2019-01-24T00:16:22.690Z,97754.27
2019-01-24T00:18:52.215Z,97751.73
2019-01-24T00:21:21.722Z,97744.18
2019-01-24T00:23:51.190Z,97743.44
2019-01-24T00:26:20.616Z,97733.91
2019-01-24T00:28:50.121Z,97720.64
2019-01-24T00:31:19.666Z,97717.55
2019-01-24T00:33:49.122Z,97727.67
2019-01-24T00:36:18.560Z,97733.73
2019-01-24T00:38:48.189Z,97738.13
2019-01-24T00:41:17.702Z,97749.24
2019-01-24T00:43:47.114Z,97748.88
2019-01-24T00:46:16.576Z,97748.12
2019-01-24T00:48:46.081Z,97745.98
2019-01-24T00:51:15.596Z,97744.66
2019-01-24T00:53:45.043Z,97745.05
2019-01-24T00:56:14.552Z,97752.80
2019-01-24T00:58:44.065Z,97739.89
2019-01-24T01:01:13.550Z,97720.95
2019-01-24T01:03:43.073Z,97723.73
2019-01-24T01:06:12.590Z,97720.76
2019-01-24T01:08:42.061Z,97723.57
2019-01-24T01:11:11.590Z,97725.34
2019-01-24T01:13:41.191Z,97724.47
2019-01-24T01:16:10.764Z,97726.09
2019-01-24T01:18:40.164Z,97721.48
2019-01-24T01:21:09.692Z,97711.97
2019-01-24T01:23:39.258Z,97712.99
2019-01-24T01:26:08.774Z,97712.99
2019-01-24T01:28:38.527Z,97717.50
2019-01-24T01:31:08.286Z,97695.05
2019-01-24T01:33:37.980Z,97690.19
2019-01-24T01:36:07.395Z,97690.02
2019-01-24T01:38:37.206Z,97680.56
2019-01-24T01:41:06.824Z,97689.09
2019-01-24T01:43:36.210Z,97685.53
2019-01-24T01:46:05.857Z,97678.43
2019-01-24T01:48:35.398Z,97677.13
2019-01-24T01:51:04.990Z,97676.55
2019-01-24T01:53:34.449Z,97656.19
2019-01-24T01:56:03.975Z,97655.16
2019-01-24T01:58:33.503Z,97660.02
2019-01-24T02:01:03.034Z,97662.73
2019-01-24T02:03:32.425Z,97658.53
2019-01-24T02:06:01.840Z,97648.91
2019-01-24T02:08:31.375Z,97644.05
2019-01-24T02:11:00.893Z,97644.25
2019-01-24T02:13:30.301Z,97635.55
2019-01-24T02:16:00.098Z,97624.62
2019-01-24T02:18:29.483Z,97622.74
2019-01-24T02:20:58.885Z,97633.66
2019-01-24T02:23:28.418Z,97621.55
2019-01-24T02:25:57.941Z,97624.33
2019-01-24T02:28:27.369Z,97620.47
2019-01-24T02:30:56.794Z,97606.68
2019-01-24T02:33:26.396Z,97590.62
2019-01-24T02:35:55.889Z,97597.52
2019-01-24T02:38:25.489Z,97607.88
2019-01-24T02:40:54.874Z,97616.39
2019-01-24T02:43:24.366Z,97616.67
2019-01-24T02:45:54.053Z,97612.28
2019-01-24T02:48:23.837Z,97609.84
2019-01-24T02:50:53.239Z,97615.84
2019-01-24T02:53:22.723Z,97596.29
2019-01-24T02:55:52.350Z,97593.47
2019-01-24T02:58:21.846Z,97583.88
2019-01-24T03:00:51.372Z,97588.91
2019-01-24T03:03:20.814Z,97585.82
2019-01-24T03:05:50.410Z,97583.94
2019-01-24T03:08:21.860Z,97576.39
2019-01-24T03:10:51.446Z,97571.73
2019-01-24T03:13:20.838Z,97556.04
2019-01-24T03:15:50.781Z,97541.66
2019-01-24T03:18:20.322Z,97528.04
2019-01-24T03:20:49.850Z,97515.06
2019-01-24T03:23:19.295Z,97509.27
2019-01-24T03:25:48.717Z,97485.72
2019-01-24T03:28:18.237Z,97465.27
2019-01-24T03:30:47.858Z,97456.91
2019-01-24T03:33:17.299Z,97462.37
2019-01-24T03:35:46.824Z,97469.26
2019-01-24T03:38:16.290Z,97468.56
2019-01-24T03:40:45.721Z,97471.59
2019-01-24T03:43:15.253Z,97476.70
2019-01-24T03:45:44.795Z,97474.71
2019-01-24T03:48:14.214Z,97476.72
2019-01-24T03:50:43.613Z,97504.66
2019-01-24T03:53:13.159Z,97511.15
2019-01-24T03:55:42.642Z,97507.01
2019-01-24T03:58:12.081Z,97507.11
2019-01-24T04:00:41.657Z,97506.17
2019-01-24T04:03:11.172Z,97498.27
2019-01-24T04:05:40.767Z,97503.05
2019-01-24T04:08:10.221Z,97515.74
2019-01-24T04:10:39.659Z,97510.44
2019-01-24T04:13:09.258Z,97501.48
2019-01-24T04:15:38.784Z,97493.47
2019-01-24T04:18:08.699Z,97501.39
2019-01-24T04:20:38.131Z,97496.61
2019-01-24T04:23:07.746Z,97503.00
2019-01-24T04:25:37.227Z,97503.87
2019-01-24T04:28:06.634Z,97491.31
2019-01-24T04:30:36.213Z,97509.51
2019-01-24T04:33:05.713Z,97501.35
2019-01-24T04:35:35.208Z,97495.76
2019-01-24T04:38:04.811Z,97504.88
2019-01-24T04:40:34.296Z,97499.05
2019-01-24T04:43:03.797Z,97499.70
2019-01-24T04:45:33.335Z,97491.23
2019-01-24T04:48:02.776Z,97499.47
2019-01-24T04:50:32.159Z,97493.07
2019-01-24T04:53:01.739Z,97496.41
2019-01-24T04:55:31.198Z,97497.80
2019-01-24T04:58:00.790Z,97499.52
2019-01-24T05:00:31.699Z,97494.02
2019-01-24T05:03:01.105Z,97494.86
2019-01-24T05:05:30.528Z,97492.24
2019-01-24T05:08:00.248Z,97495.98
2019-01-24T05:10:29.742Z,97495.59
2019-01-24T05:12:59.188Z,97499.04
2019-01-24T05:15:28.658Z,97498.22
2019-01-24T05:17:58.193Z,97498.09
2019-01-24T05:20:27.695Z,97499.40
2019-01-24T05:22:57.166Z,97504.06
2019-01-24T05:25:26.573Z,97497.66
2019-01-24T05:27:56.088Z,97494.28
2019-01-24T05:30:27.983Z,97508.41
2019-01-24T05:32:57.445Z,97507.33
2019-01-24T05:35:34.451Z,97509.11
2019-01-24T05:37:58.822Z,97503.98
2019-01-24T05:40:28.243Z,97496.82
2019-01-24T05:42:57.766Z,97496.95
2019-01-24T05:45:27.321Z,97502.43
2019-01-24T05:47:56.723Z,97496.30
2019-01-24T05:50:26.515Z,97496.66
2019-01-24T05:52:58.451Z,97488.11
2019-01-24T05:55:27.958Z,97486.51
2019-01-24T05:57:57.598Z,97484.24
2019-01-24T06:00:33.647Z,97485.84
2019-01-24T06:03:03.227Z,97484.72
2019-01-24T06:05:32.725Z,97484.25
2019-01-24T06:08:02.154Z,97492.84
2019-01-24T06:10:31.729Z,97491.16
2019-01-24T06:13:01.220Z,97505.36
2019-01-24T06:15:30.645Z,97494.02
2019-01-24T06:18:00.196Z,97497.13
2019-01-24T06:20:29.748Z,97497.86
2019-01-24T06:22:59.165Z,97496.06
2019-01-24T06:25:28.762Z,97498.09
2019-01-24T06:27:58.243Z,97507.20
2019-01-24T06:30:27.727Z,97503.55
2019-01-24T06:32:57.323Z,97516.34
2019-01-24T06:35:26.728Z,97504.09
2019-01-24T06:37:56.232Z,97501.59
2019-01-24T06:40:25.741Z,97496.85
2019-01-24T06:42:55.125Z,97504.17
2019-01-24T06:45:24.547Z,97494.30
2019-01-24T06:47:54.291Z,97493.13
2019-01-24T06:50:23.769Z,97488.70
2019-01-24T06:52:53.249Z,97481.92
2019-01-24T06:55:25.399Z,97483.86
2019-01-24T06:57:54.919Z,97487.17
2019-01-24T07:00:24.327Z,97500.70
2019-01-24T07:02:53.850Z,97498.10
2019-01-24T07:05:23.324Z,97506.70
2019-01-24T07:07:52.720Z,97499.55
2019-01-24T07:10:22.902Z,97507.70
2019-01-24T07:12:52.404Z,97502.30
2019-01-24T07:15:23.138Z,97507.22
2019-01-24T07:17:52.969Z,97509.98
2019-01-24T07:20:22.479Z,97513.44
2019-01-24T07:22:51.976Z,97512.27
2019-01-24T07:25:24.155Z,97509.37
2019-01-24T07:27:53.541Z,97510.58
2019-01-24T07:30:23.147Z,97504.69
2019-01-24T07:32:52.700Z,97504.47
2019-01-24T07:35:22.116Z,97501.97
2019-01-24T07:37:51.705Z,97512.02
2019-01-24T07:40:21.409Z,97501.12
2019-01-24T07:42:51.064Z,97503.75
2019-01-24T07:45:32.202Z,97499.31
2019-01-24T07:48:01.710Z,97502.91
2019-01-24T07:50:31.189Z,97516.44
2019-01-24T07:53:00.778Z,97512.96
2019-01-24T07:55:30.183Z,97515.85
2019-01-24T07:57:59.714Z,97517.16
2019-01-24T08:00:29.619Z,97526.11
2019-01-24T08:02:59.122Z,97520.87
2019-01-24T08:05:28.901Z,97525.99
2019-01-24T08:07:58.639Z,97530.67
2019-01-24T08:10:28.324Z,97521.94
2019-01-24T08:12:57.792Z,97526.12
2019-01-24T08:15:27.466Z,97529.84
2019-01-24T08:17:56.874Z,97536.16
2019-01-24T08:20:27.503Z,97536.66
2019-01-24T08:22:57.029Z,97537.73
2019-01-24T08:25:26.489Z,97547.30
2019-01-24T08:27:55.900Z,97557.82
2019-01-24T08:30:33.440Z,97565.61
2019-01-24T08:33:03.035Z,97569.16
2019-01-24T08:35:33.027Z,97577.85
2019-01-24T08:38:02.745Z,97571.34
2019-01-24T08:40:32.098Z,97562.91
2019-01-24T08:43:01.606Z,97573.89
2019-01-24T08:45:31.124Z,97576.13
2019-01-24T08:48:00.530Z,97584.13
2019-01-24T08:50:29.942Z,97586.15
2019-01-24T08:52:59.493Z,97586.83
2019-01-24T08:55:31.420Z,97596.62
2019-01-24T08:58:01.060Z,97596.03
2019-01-24T09:00:30.719Z,97595.67
2019-01-24T09:03:22.886Z,97593.63
2019-01-24T09:20:14.930Z,97605.11
2019-01-24T09:22:44.387Z,97605.92
2019-01-24T09:25:14.091Z,97614.89
2019-01-24T09:27:43.931Z,97613.69
2019-01-24T09:30:19.069Z,97615.91
2019-01-24T09:32:48.533Z,97604.38
2019-01-24T09:35:18.175Z,97607.73
2019-01-24T09:37:47.656Z,97604.20
2019-01-24T09:40:17.571Z,97605.28
2019-01-24T09:42:46.995Z,97595.13
2019-01-24T09:45:22.070Z,97600.55
2019-01-24T09:47:52.505Z,97598.89
2019-01-24T09:50:23.293Z,97588.97
2019-01-24T09:52:52.730Z,97593.86
2019-01-24T09:55:22.367Z,97586.34
2019-01-24T09:57:52.169Z,97584.48
2019-01-24T10:00:27.114Z,97581.25
2019-01-24T10:02:56.748Z,97576.84
2019-01-24T10:05:26.232Z,97576.76
2019-01-24T10:07:56.007Z,97572.38
2019-01-24T10:10:25.865Z,97571.66
2019-01-24T10:12:56.142Z,97566.55
2019-01-24T10:15:26.131Z,97567.30
2019-01-24T10:17:55.640Z,97565.90
2019-01-24T10:20:26.196Z,97571.99
2019-01-24T10:22:56.036Z,97578.72
2019-01-24T10:25:31.112Z,97567.59
2019-01-24T10:28:00.718Z,97569.17
2019-01-24T10:30:30.410Z,97569.19
2019-01-24T10:32:59.999Z,97571.81
2019-01-24T10:35:29.444Z,97569.77
2019-01-24T10:37:58.854Z,97572.44
2019-01-24T10:40:30.436Z,97573.76
2019-01-24T10:43:00.062Z,97570.52
2019-01-24T10:45:29.473Z,97568.13
2019-01-24T10:47:58.887Z,97573.52
2019-01-24T10:50:28.860Z,97574.95
2019-01-24T10:52:58.637Z,97580.43
2019-01-24T10:55:29.340Z,97568.36
2019-01-24T10:58:03.424Z,97564.04
2019-01-24T11:00:38.980Z,97568.69
2019-01-24T11:03:11.298Z,97568.66
2019-01-24T11:05:40.800Z,97561.30
2019-01-24T11:08:10.296Z,97555.19
2019-01-24T11:10:39.880Z,97556.95
2019-01-24T11:13:09.281Z,97557.34
2019-01-24T11:15:38.801Z,97564.16
2019-01-24T11:18:09.061Z,97559.23
2019-01-24T11:20:38.464Z,97558.88
2019-01-24T11:23:08.007Z,97548.78
2019-01-24T11:25:37.597Z,97560.16
2019-01-24T11:28:07.290Z,97562.27
2019-01-24T11:30:36.877Z,97568.19
2019-01-24T11:33:07.717Z,97564.79
2019-01-24T11:35:37.860Z,97562.98
2019-01-24T11:38:07.562Z,97559.95
2019-01-24T11:40:37.135Z,97562.37
2019-01-24T11:43:07.441Z,97559.03
2019-01-24T11:45:39.554Z,97558.82
2019-01-24T11:48:09.005Z,97563.11
2019-01-24T11:50:38.491Z,97565.88
2019-01-24T11:53:07.958Z,97563.67
2019-01-24T11:55:37.553Z,97564.72
2019-01-24T11:58:07.703Z,97557.24
2019-01-24T12:00:52.361Z,97560.42
2019-01-24T12:03:21.851Z,97562.03
2019-01-24T12:05:51.298Z,97566.50
2019-01-24T12:08:20.874Z,97571.00
2019-01-24T12:10:50.345Z,97572.05
2019-01-24T12:13:19.824Z,97575.80
2019-01-24T12:15:49.431Z,97577.14
2019-01-24T12:18:18.846Z,97579.42
2019-01-24T12:20:48.314Z,97571.51
2019-01-24T12:23:17.764Z,97571.92
2019-01-24T12:25:47.253Z,97577.05
2019-01-24T12:28:16.728Z,97570.52
2019-01-24T12:30:46.169Z,97578.36
2019-01-24T12:33:15.579Z,97575.97
2019-01-24T12:35:45.177Z,97575.56
2019-01-24T12:38:14.971Z,97576.02
2019-01-24T12:40:44.362Z,97577.41
2019-01-24T12:43:13.793Z,97583.86
2019-01-24T12:45:43.480Z,97576.87
2019-01-24T12:48:12.967Z,97580.32
2019-01-24T12:50:42.346Z,97575.77
2019-01-24T12:53:11.938Z,97583.00
2019-01-24T12:55:41.454Z,97579.52
2019-01-24T12:58:10.942Z,97591.41
2019-01-24T13:00:40.740Z,97586.16
2019-01-24T13:03:10.395Z,97584.20
2019-01-24T13:05:39.788Z,97578.73
2019-01-24T13:08:09.386Z,97573.38
2019-01-24T13:10:38.890Z,97567.27
2019-01-24T13:13:08.402Z,97574.94
2019-01-24T13:15:37.823Z,97574.59
2019-01-24T13:18:07.527Z,97581.73
2019-01-24T13:20:37.028Z,97585.94
2019-01-24T13:23:06.781Z,97593.62
2019-01-24T13:25:36.339Z,97592.03
2019-01-24T13:28:06.407Z,97599.56
2019-01-24T13:30:36.321Z,97600.22
2019-01-24T13:33:07.384Z,97609.95
2019-01-24T13:35:37.068Z,97608.44
2019-01-24T13:38:07.405Z,97612.06
2019-01-24T13:40:37.128Z,97611.15
2019-01-24T13:43:07.620Z,97611.78
2019-01-24T13:45:41.622Z,97623.44
2019-01-24T13:48:11.211Z,97629.47
2019-01-24T13:50:40.609Z,97638.86
2019-01-24T13:53:10.170Z,97633.23
2019-01-24T13:55:39.745Z,97638.42
2019-01-24T13:58:09.713Z,97637.45
2019-01-24T14:00:40.754Z,97639.74
2019-01-24T14:03:53.993Z,97643.30
2019-01-24T14:06:23.546Z,97641.76
2019-01-24T14:08:53.100Z,97652.00
2019-01-24T14:11:22.487Z,97658.02
2019-01-24T14:13:52.077Z,97664.50
2019-01-24T14:16:21.603Z,97667.27
2019-01-24T14:18:51.144Z,97664.97
2019-01-24T14:21:20.743Z,97663.95
2019-01-24T14:23:50.232Z,97662.02
2019-01-24T14:26:19.652Z,97668.17
2019-01-24T14:28:49.115Z,97668.61
2019-01-24T14:31:18.693Z,97668.74
2019-01-24T14:33:48.191Z,97667.30
2019-01-24T14:36:17.645Z,97668.05
2019-01-24T14:38:47.044Z,97666.86
2019-01-24T14:41:16.515Z,97668.80
2019-01-24T14:43:46.008Z,97676.11
2019-01-24T14:46:15.399Z,97686.23
2019-01-24T14:48:44.804Z,97686.84
2019-01-24T14:51:14.345Z,97693.48
2019-01-24T14:53:43.863Z,97698.05
2019-01-24T14:56:13.280Z,97700.95
2019-01-24T14:58:43.954Z,97702.97
2019-01-24T15:01:19.540Z,97701.43
2019-01-24T15:03:49.037Z,97703.36
2019-01-24T15:06:18.426Z,97710.44
2019-01-24T15:08:47.837Z,97717.38
2019-01-24T15:11:17.842Z,97719.44
2019-01-24T15:13:47.315Z,97728.09
2019-01-24T15:16:16.951Z,97731.39
2019-01-24T15:18:46.411Z,97732.02
2019-01-24T15:21:16.014Z,97734.55
2019-01-24T15:23:45.494Z,97738.84
2019-01-24T15:26:15.177Z,97741.38
2019-01-24T15:28:44.574Z,97742.80
2019-01-24T15:31:14.050Z,97753.59
2019-01-24T15:33:43.571Z,97756.00
2019-01-24T15:36:13.062Z,97758.05
2019-01-24T15:38:42.534Z,97765.83
2019-01-24T15:41:12.775Z,97769.05
2019-01-24T15:43:42.186Z,97773.38
2019-01-24T15:46:11.666Z,97779.84
2019-01-24T15:48:42.837Z,97775.40
2019-01-24T15:51:12.639Z,97782.23
2019-01-24T15:53:42.052Z,97787.13
2019-01-24T15:56:11.595Z,97776.98
2019-01-24T15:58:41.048Z,97779.70
2019-01-24T16:01:10.459Z,97783.55
2019-01-24T16:03:40.134Z,97786.42
2019-01-24T16:06:09.623Z,97791.34
2019-01-24T16:08:39.117Z,97780.42
2019-01-24T16:11:08.570Z,97788.80
2019-01-24T16:13:37.986Z,97794.91
2019-01-24T16:16:07.595Z,97799.59
2019-01-24T16:18:37.315Z,97802.70
2019-01-24T16:21:06.741Z,97805.21
2019-01-24T16:23:36.232Z,97801.02
2019-01-24T16:26:06.085Z,97815.88
2019-01-24T16:28:35.510Z,97812.62
2019-01-24T16:31:05.086Z,97825.31
2019-01-24T16:33:34.786Z,97823.40
2019-01-24T16:36:04.580Z,97826.39
2019-01-24T16:38:33.974Z,97830.58
2019-01-24T16:41:03.521Z,97831.30
2019-01-24T16:43:33.006Z,97833.34
2019-01-24T16:46:02.411Z,97842.92
2019-01-24T16:48:32.016Z,97846.75
2019-01-24T16:51:01.517Z,97841.95
2019-01-24T16:53:31.017Z,97842.08
2019-01-24T16:56:00.443Z,97841.15
2019-01-24T16:58:29.862Z,97851.16
2019-01-24T17:01:13.570Z,97850.67
2019-01-24T17:03:42.989Z,97857.29
2019-01-24T17:06:12.483Z,97863.76
2019-01-24T17:08:42.104Z,97866.75
2019-01-24T17:11:11.508Z,97873.19
2019-01-24T17:13:40.911Z,97876.66
2019-01-24T17:16:10.631Z,97884.67
2019-01-24T17:18:40.120Z,97888.14
2019-01-24T17:21:09.512Z,97886.71
2019-01-24T17:23:38.978Z,97891.86
2019-01-24T17:26:08.511Z,97894.73
2019-01-24T17:28:38.006Z,97907.78
2019-01-24T17:31:07.611Z,97906.27
2019-01-24T17:33:37.022Z,97906.23
2019-01-24T17:36:06.640Z,97903.59
2019-01-24T17:38:36.194Z,97900.25
2019-01-24T17:41:06.049Z,97912.10
2019-01-24T17:43:35.484Z,97925.27
2019-01-24T17:46:10.132Z,97925.74
2019-01-24T17:48:39.596Z,97920.95
2019-01-24T17:51:09.203Z,97927.14
2019-01-24T17:53:38.642Z,97933.36
2019-01-24T17:56:08.230Z,97938.67
2019-01-24T17:58:37.917Z,97939.64
2019-01-24T18:01:07.437Z,97934.89
2019-01-24T18:03:38.822Z,97928.86
2019-01-24T18:06:08.556Z,97928.50
2019-01-24T18:08:38.088Z,97932.25
2019-01-24T18:11:07.490Z,97946.21
2019-01-24T18:13:36.943Z,97942.58
2019-01-24T18:16:06.668Z,97943.05
2019-01-24T18:18:36.191Z,97943.47
2019-01-24T18:21:05.664Z,97947.30
2019-01-24T18:23:35.158Z,97949.22
2019-01-24T18:26:04.830Z,97958.69
2019-01-24T18:28:34.335Z,97953.17
2019-01-24T18:31:04.607Z,97964.38
2019-01-24T18:33:34.093Z,97962.20
2019-01-24T18:36:03.560Z,97971.06
2019-01-24T18:38:38.437Z,97976.80
2019-01-24T18:41:08.706Z,97982.63
2019-01-24T18:43:37.471Z,97986.92
2019-01-24T18:46:07.099Z,97991.83
2019-01-24T18:48:36.487Z,97996.82
2019-01-24T18:51:06.100Z,97993.64
2019-01-24T18:53:35.686Z,97988.54
2019-01-24T18:56:05.837Z,97984.95
2019-01-24T18:58:35.257Z,97988.31
2019-01-24T19:01:04.936Z,97979.70
2019-01-24T19:03:34.406Z,97992.85
2019-01-24T19:06:03.952Z,97996.55
2019-01-24T19:08:33.613Z,98006.73
2019-01-24T19:11:03.009Z,98017.08
2019-01-24T19:13:34.088Z,98023.55
2019-01-24T19:16:03.688Z,98018.25
2019-01-24T19:18:33.363Z,98032.31
2019-01-24T19:21:02.799Z,98034.08
2019-01-24T19:23:32.328Z,98035.30
2019-01-24T19:26:01.835Z,98037.58
2019-01-24T19:28:31.519Z,98031.84
2019-01-24T19:31:00.935Z,98037.30
2019-01-24T19:33:30.345Z,98033.41
2019-01-24T19:36:00.377Z,98024.58
2019-01-24T19:38:30.138Z,98014.11
2019-01-24T19:40:59.544Z,98011.14
2019-01-24T19:43:30.019Z,98017.69
2019-01-24T19:45:59.439Z,98024.52
2019-01-24T19:48:28.847Z,98015.14
2019-01-24T19:50:58.404Z,98030.96
2019-01-24T19:53:27.917Z,98035.64
2019-01-24T19:55:57.349Z,98040.00
2019-01-24T19:58:26.823Z,98052.13
2019-01-24T20:00:56.324Z,98058.92
2019-01-24T20:03:25.831Z,98068.49
2019-01-24T20:05:55.293Z,98061.08
2019-01-24T20:08:24.688Z,98066.95
2019-01-24T20:10:54.216Z,98073.17
2019-01-24T20:13:23.763Z,98083.06
2019-01-24T20:15:53.155Z,98094.85
2019-01-24T20:18:22.569Z,98097.38
2019-01-24T20:20:52.453Z,98095.33
2019-01-24T20:23:21.943Z,98094.91
2019-01-24T20:25:51.358Z,98099.88
2019-01-24T20:28:20.783Z,98100.79
2019-01-24T20:30:50.290Z,98110.22
2019-01-24T20:33:19.788Z,98116.14
2019-01-24T20:35:55.366Z,98121.03
2019-01-24T20:38:24.829Z,98120.86
2019-01-24T20:40:54.324Z,98135.14
2019-01-24T20:43:24.066Z,98133.98
2019-01-24T20:45:53.605Z,98138.07
2019-01-24T20:48:23.019Z,98133.98
2019-01-24T20:50:52.558Z,98129.66
2019-01-24T20:53:22.184Z,98131.70
2019-01-24T20:55:51.604Z,98127.83
2019-01-24T20:58:21.289Z,98129.66
2019-01-24T21:00:50.816Z,98139.20
2019-01-24T21:03:20.397Z,98141.25
2019-01-24T21:05:49.947Z,98144.55
2019-01-24T21:08:19.461Z,98155.30
2019-01-24T21:10:48.858Z,98168.71
2019-01-24T21:13:18.811Z,98175.77
2019-01-24T21:15:48.483Z,98180.63
2019-01-24T21:18:17.980Z,98181.83
2019-01-24T21:20:47.574Z,98180.37
2019-01-24T21:23:16.987Z,98186.95
2019-01-24T21:25:46.494Z,98191.42
2019-01-24T21:28:16.026Z,98190.28
2019-01-24T21:30:45.421Z,98181.73
2019-01-24T21:33:15.039Z,98181.88
2019-01-24T21:35:44.740Z,98186.87
2019-01-24T21:38:14.281Z,98196.31
2019-01-24T21:40:43.711Z,98204.25
2019-01-24T21:43:13.271Z,98211.91
2019-01-24T21:45:42.657Z,98212.60
2019-01-24T21:48:12.050Z,98217.45
2019-01-24T21:50:41.599Z,98227.89
2019-01-24T21:53:11.209Z,98232.89
2019-01-24T21:55:40.637Z,98243.52
2019-01-24T21:58:10.381Z,98242.48
2019-01-24T22:00:40.029Z,98233.94
2019-01-24T22:03:10.625Z,98230.64
2019-01-24T22:05:40.245Z,98233.37
2019-01-24T22:08:09.759Z,98235.75
2019-01-24T22:10:39.378Z,98243.53
2019-01-24T22:13:08.901Z,98245.33
2019-01-24T22:15:38.284Z,98243.84
2019-01-24T22:18:08.062Z,98233.12
2019-01-24T22:20:37.598Z,98224.02
2019-01-24T22:23:07.337Z,98218.09
2019-01-24T22:25:37.404Z,98227.50
2019-01-24T22:28:07.804Z,98239.23
2019-01-24T22:30:42.491Z,98248.80
2019-01-24T22:33:12.057Z,98264.38
2019-01-24T22:35:41.583Z,98261.69
2019-01-24T22:38:11.084Z,98255.21
2019-01-24T22:40:40.518Z,98260.90
2019-01-24T22:43:09.925Z,98250.01
2019-01-24T22:45:39.534Z,98253.84
2019-01-24T22:48:09.176Z,98265.53
2019-01-24T22:50:38.563Z,98249.55
2019-01-24T22:53:08.083Z,98246.50
2019-01-24T22:55:37.622Z,98265.97
2019-01-24T22:58:08.044Z,98282.28
2019-01-24T23:01:14.756Z,98285.58
2019-01-24T23:03:46.746Z,98289.89
2019-01-24T23:06:16.859Z,98301.26
2019-01-24T23:08:46.268Z,98289.31
2019-01-24T23:11:15.876Z,98274.42
2019-01-24T23:13:45.556Z,98254.02
2019-01-24T23:16:14.950Z,98261.17
2019-01-24T23:18:44.383Z,98274.12
2019-01-24T23:21:14.135Z,98276.17
2019-01-24T23:23:43.639Z,98266.97
2019-01-24T23:26:13.051Z,98276.22
2019-01-24T23:28:42.512Z,98273.13
2019-01-24T23:31:12.017Z,98266.61
2019-01-24T23:33:41.489Z,98274.70
2019-01-24T23:36:11.038Z,98269.91
2019-01-24T23:38:40.464Z,98263.88
2019-01-24T23:41:10.023Z,98258.83
2019-01-24T23:43:40.736Z,98251.72
2019-01-24T23:46:10.406Z,98245.82
2019-01-24T23:48:39.899Z,98240.09
2019-01-24T23:51:09.357Z,98224.72
2019-01-24T23:53:38.810Z,98233.99
2019-01-24T23:56:08.411Z,98230.89
2019-01-24T23:58:37.970Z,98234.80
